createdAt,value
2018-11-06T00:02:59.739Z,97830.50
2018-11-06T00:08:02.076Z,97827.69
2018-11-06T00:13:04.899Z,97839.84
2018-11-06T00:18:07.205Z,97829.84
2018-11-06T00:23:09.538Z,97836.30
2018-11-06T00:28:11.865Z,97836.09
2018-11-06T00:33:14.245Z,97838.19
2018-11-06T00:38:16.545Z,97840.05
2018-11-06T00:43:19.009Z,97844.36
2018-11-06T00:48:21.449Z,97844.32
2018-11-06T00:53:23.757Z,97840.73
2018-11-06T00:58:26.081Z,97838.28
2018-11-06T01:03:34.069Z,97844.60
2018-11-06T01:08:36.374Z,97848.00
2018-11-06T01:13:38.916Z,97854.33
2018-11-06T01:18:41.359Z,97851.16
2018-11-06T01:23:43.666Z,97844.74
2018-11-06T01:28:46.034Z,97847.48
2018-11-06T01:33:48.482Z,97836.80
2018-11-06T01:38:50.866Z,97832.80
2018-11-06T01:43:53.270Z,97823.09
2018-11-06T01:48:55.625Z,97820.67
2018-11-06T01:53:58.107Z,97815.00
2018-11-06T01:59:00.452Z,97821.33
2018-11-06T02:04:02.914Z,97820.82
2018-11-06T02:09:07.408Z,97818.46
2018-11-06T02:14:09.804Z,97819.25
2018-11-06T02:19:12.233Z,97815.56
2018-11-06T02:24:14.580Z,97814.97
2018-11-06T02:29:16.943Z,97811.23
2018-11-06T02:34:19.416Z,97815.93
2018-11-06T02:39:21.771Z,97816.24
2018-11-06T02:44:24.347Z,97823.50
2018-11-06T02:49:26.694Z,97834.58
2018-11-06T02:54:29.265Z,97832.89
2018-11-06T02:59:31.627Z,97821.41
2018-11-06T03:04:34.030Z,97831.47
2018-11-06T03:09:36.438Z,97835.41
2018-11-06T03:14:38.796Z,97842.50
2018-11-06T03:19:41.104Z,97842.91
2018-11-06T03:24:43.396Z,97843.36
2018-11-06T03:29:45.714Z,97849.48
2018-11-06T03:34:48.005Z,97852.85
2018-11-06T03:39:50.306Z,97856.47
2018-11-06T03:44:52.648Z,97852.16
2018-11-06T03:49:54.974Z,97839.55
2018-11-06T03:54:57.276Z,97843.52
2018-11-06T03:59:59.852Z,97841.97
2018-11-06T04:05:02.239Z,97850.73
2018-11-06T04:10:05.517Z,97847.50
2018-11-06T04:15:12.276Z,97853.16
2018-11-06T04:20:14.679Z,97848.70
2018-11-06T04:25:17.009Z,97855.89
2018-11-06T04:30:19.574Z,97848.80
2018-11-06T04:35:21.886Z,97849.89
2018-11-06T04:40:24.261Z,97855.08
2018-11-06T04:45:26.602Z,97857.81
2018-11-06T04:50:31.325Z,97856.38
2018-11-06T04:55:33.630Z,97859.45
2018-11-06T05:00:35.962Z,97862.74
2018-11-06T05:05:38.278Z,97861.17
2018-11-06T05:10:40.570Z,97868.35
2018-11-06T05:15:42.918Z,97869.05
2018-11-06T05:20:46.535Z,97867.97
2018-11-06T05:25:49.080Z,97868.50
2018-11-06T05:30:51.366Z,97870.67
2018-11-06T05:35:53.634Z,97876.91
2018-11-06T05:41:00.749Z,97875.36
2018-11-06T05:46:03.115Z,97879.98
2018-11-06T05:51:05.529Z,97880.09
2018-11-06T05:56:07.806Z,97884.10
2018-11-06T06:01:10.275Z,97884.78
2018-11-06T06:06:12.554Z,97881.84
2018-11-06T06:11:14.882Z,97886.84
2018-11-06T06:16:17.203Z,97887.11
2018-11-06T06:21:19.549Z,97891.66
2018-11-06T06:26:21.831Z,97900.27
2018-11-06T06:31:24.111Z,97905.30
2018-11-06T06:36:26.387Z,97913.30
2018-11-06T06:41:28.682Z,97916.70
2018-11-06T06:46:31.037Z,97916.78
2018-11-06T06:51:33.362Z,97924.08
2018-11-06T06:56:35.662Z,97926.84
2018-11-06T07:01:37.969Z,97933.76
2018-11-06T07:06:40.252Z,97942.28
2018-11-06T07:11:42.545Z,97947.34
2018-11-06T07:16:44.878Z,97945.93
2018-11-06T07:21:47.151Z,97955.05
2018-11-06T07:26:49.423Z,97951.45
2018-11-06T07:31:51.994Z,97949.92
2018-11-06T07:36:54.263Z,97950.56
2018-11-06T07:41:56.569Z,97946.12
2018-11-06T07:46:59.114Z,97931.19
2018-11-06T07:52:01.410Z,97938.17
2018-11-06T07:57:03.798Z,97936.67
2018-11-06T08:02:06.153Z,97939.05
2018-11-06T08:07:08.434Z,97932.83
2018-11-06T08:12:10.723Z,97931.54
2018-11-06T08:17:13.069Z,97929.10
2018-11-06T08:22:15.338Z,97931.38
2018-11-06T08:27:17.635Z,97929.53
2018-11-06T08:32:20.067Z,97925.91
2018-11-06T08:37:22.258Z,97921.63
2018-11-06T08:42:24.628Z,97932.77
2018-11-06T08:47:26.935Z,97918.49
2018-11-06T08:52:29.243Z,97923.81
2018-11-06T08:57:31.532Z,97928.28
2018-11-06T09:02:33.940Z,97923.61
2018-11-06T09:07:36.412Z,97925.67
2018-11-06T09:12:39.222Z,97924.16
2018-11-06T09:17:41.938Z,97932.50
2018-11-06T09:22:44.201Z,97935.39
2018-11-06T09:27:46.485Z,97932.64
2018-11-06T09:32:48.779Z,97933.29
2018-11-06T09:37:51.049Z,97929.05
2018-11-06T09:42:53.342Z,97929.09
2018-11-06T09:47:55.674Z,97934.02
2018-11-06T09:52:58.080Z,97925.41
2018-11-06T09:58:00.409Z,97926.33
2018-11-06T10:03:02.732Z,97921.72
2018-11-06T10:08:05.026Z,97915.48
2018-11-06T10:13:07.314Z,97917.12
2018-11-06T10:18:09.638Z,97901.48
2018-11-06T10:23:11.918Z,97907.77
2018-11-06T10:28:14.233Z,97903.86
2018-11-06T10:33:16.540Z,97898.84
2018-11-06T10:38:18.847Z,97890.70
2018-11-06T10:43:21.134Z,97894.33
2018-11-06T10:48:23.481Z,97890.00
2018-11-06T10:53:26.106Z,97886.69
2018-11-06T10:58:28.411Z,97875.07
2018-11-06T11:03:34.725Z,97868.58
2018-11-06T11:08:36.998Z,97874.50
2018-11-06T11:13:39.277Z,97868.75
2018-11-06T11:18:41.570Z,97866.39
2018-11-06T11:23:43.933Z,97861.49
2018-11-06T11:28:46.222Z,97863.64
2018-11-06T11:33:48.574Z,97858.87
2018-11-06T11:38:50.942Z,97858.11
2018-11-06T11:43:53.455Z,97858.45
2018-11-06T11:48:55.796Z,97845.05
2018-11-06T11:53:58.084Z,97832.74
2018-11-06T11:59:00.357Z,97831.47
2018-11-06T12:04:02.691Z,97830.23
2018-11-06T12:09:07.475Z,97829.72
2018-11-06T12:14:09.750Z,97829.20
2018-11-06T12:19:12.089Z,97819.61
2018-11-06T12:24:14.540Z,97814.56
2018-11-06T12:29:16.707Z,97806.30
2018-11-06T12:34:19.002Z,97801.54
2018-11-06T12:39:21.292Z,97799.03
2018-11-06T12:44:23.635Z,97796.48
2018-11-06T12:49:25.950Z,97793.70
2018-11-06T12:54:28.245Z,97788.27
2018-11-06T12:59:30.505Z,97783.36
2018-11-06T13:04:32.793Z,97777.48
2018-11-06T13:09:35.069Z,97778.79
2018-11-06T13:14:37.466Z,97777.39
2018-11-06T13:19:39.757Z,97776.67
2018-11-06T13:24:42.042Z,97767.78
2018-11-06T13:29:44.323Z,97768.13
2018-11-06T13:34:46.602Z,97770.24
2018-11-06T13:39:48.899Z,97760.63
2018-11-06T13:44:51.592Z,97757.95
2018-11-06T13:49:53.544Z,97756.97
2018-11-06T13:54:55.823Z,97756.41
2018-11-06T13:59:58.136Z,97745.02
2018-11-06T14:05:00.599Z,97747.84
2018-11-06T14:10:02.926Z,97749.06
2018-11-06T14:15:05.438Z,97752.85
2018-11-06T14:20:09.845Z,97748.95
2018-11-06T14:25:12.981Z,97743.66
2018-11-06T14:30:17.095Z,97757.41
2018-11-06T14:35:19.791Z,97760.20
2018-11-06T14:40:22.185Z,97758.98
2018-11-06T14:45:24.469Z,97763.48
2018-11-06T14:50:26.781Z,97760.27
2018-11-06T14:55:29.061Z,97767.22
2018-11-06T15:00:31.353Z,97755.95
2018-11-06T15:05:33.669Z,97760.44
2018-11-06T15:10:36.011Z,97768.61
2018-11-06T15:15:38.300Z,97774.16
2018-11-06T15:20:40.794Z,97771.61
2018-11-06T15:25:43.190Z,97772.38
2018-11-06T15:30:45.553Z,97773.89
2018-11-06T15:35:47.862Z,97781.45
2018-11-06T15:40:50.161Z,97781.80
2018-11-06T15:45:52.768Z,97785.91
2018-11-06T15:50:55.276Z,97779.84
2018-11-06T15:55:57.911Z,97783.44
2018-11-06T16:01:01.287Z,97793.40
2018-11-06T16:06:03.792Z,97797.98
2018-11-06T16:11:07.395Z,97787.49
2018-11-06T16:16:09.692Z,97788.92
2018-11-06T16:21:13.459Z,97796.78
2018-11-06T16:26:15.816Z,97789.22
2018-11-06T16:31:18.156Z,97789.25
2018-11-06T16:36:20.614Z,97802.91
2018-11-06T16:41:23.028Z,97802.11
2018-11-06T16:46:25.387Z,97808.08
2018-11-06T16:51:27.794Z,97812.16
2018-11-06T16:56:30.191Z,97820.36
2018-11-06T17:01:32.590Z,97821.96
2018-11-06T17:06:39.519Z,97834.56
2018-11-06T17:11:41.947Z,97825.86
2018-11-06T17:16:44.548Z,97830.17
2018-11-06T17:21:46.949Z,97831.96
2018-11-06T17:26:49.310Z,97837.06
2018-11-06T17:31:51.594Z,97837.45
2018-11-06T17:36:53.879Z,97821.95
2018-11-06T17:41:56.298Z,97814.91
2018-11-06T17:46:58.734Z,97826.42
2018-11-06T17:52:01.163Z,97829.84
2018-11-06T17:57:03.621Z,97827.34
2018-11-06T18:02:06.231Z,97829.88
2018-11-06T18:07:08.763Z,97829.14
2018-11-06T18:12:10.814Z,97826.84
2018-11-06T18:17:13.174Z,97825.78
2018-11-06T18:22:15.595Z,97826.53
2018-11-06T18:27:17.891Z,97824.05
2018-11-06T18:32:20.341Z,97829.13
2018-11-06T18:37:22.693Z,97825.43
2018-11-06T18:42:25.066Z,97821.45
2018-11-06T18:47:27.560Z,97819.88
2018-11-06T18:52:30.026Z,97828.00
2018-11-06T18:57:32.439Z,97826.94
2018-11-06T19:02:34.860Z,97826.02
2018-11-06T19:07:37.463Z,97812.97
2018-11-06T19:12:39.895Z,97812.76
2018-11-06T19:17:43.004Z,97817.92
2018-11-06T19:22:45.626Z,97805.92
2018-11-06T19:27:47.890Z,97815.61
2018-11-06T19:32:50.228Z,97814.41
2018-11-06T19:37:52.547Z,97812.78
2018-11-06T19:42:54.839Z,97811.86
2018-11-06T19:47:57.178Z,97812.59
2018-11-06T19:52:59.528Z,97807.64
2018-11-06T19:58:01.899Z,97813.34
2018-11-06T20:03:04.740Z,97806.83
2018-11-06T20:08:07.085Z,97811.04
2018-11-06T20:13:09.826Z,97807.81
2018-11-06T20:18:12.298Z,97811.02
2018-11-06T20:23:14.643Z,97809.15
2018-11-06T20:28:16.919Z,97813.83
2018-11-06T20:33:19.316Z,97814.88
2018-11-06T20:38:21.511Z,97815.78
2018-11-06T20:43:23.787Z,97818.90
2018-11-06T20:48:26.106Z,97805.34
2018-11-06T20:53:28.456Z,97807.41
2018-11-06T20:58:30.757Z,97804.55
2018-11-06T21:03:33.255Z,97802.06
2018-11-06T21:08:35.592Z,97810.30
2018-11-06T21:13:38.370Z,97800.33
2018-11-06T21:18:40.812Z,97799.00
2018-11-06T21:23:43.532Z,97800.09
2018-11-06T21:28:45.805Z,97802.23
2018-11-06T21:33:48.144Z,97802.73
2018-11-06T21:38:50.430Z,97797.95
2018-11-06T21:43:52.761Z,97814.31
2018-11-06T21:48:55.034Z,97817.12
2018-11-06T21:53:57.476Z,97808.36
2018-11-06T21:58:59.737Z,97812.59
2018-11-06T22:04:02.055Z,97811.73
2018-11-06T22:09:06.305Z,97814.19
2018-11-06T22:14:08.642Z,97818.98
2018-11-06T22:19:10.960Z,97817.53
2018-11-06T22:24:13.335Z,97824.50
2018-11-06T22:29:15.607Z,97833.20
2018-11-06T22:34:17.886Z,97832.31
2018-11-06T22:39:20.190Z,97836.97
2018-11-06T22:44:22.457Z,97838.44
2018-11-06T22:49:24.722Z,97843.88
2018-11-06T22:54:27.081Z,97850.64
2018-11-06T22:59:29.426Z,97846.67
2018-11-06T23:04:31.722Z,97852.39
2018-11-06T23:09:33.988Z,97865.28
2018-11-06T23:14:36.276Z,97854.30
2018-11-06T23:19:38.573Z,97854.51
2018-11-06T23:24:40.869Z,97851.49
2018-11-06T23:29:43.154Z,97849.26
2018-11-06T23:34:45.416Z,97841.97
2018-11-06T23:39:47.709Z,97847.12
2018-11-06T23:44:49.981Z,97845.50
2018-11-06T23:49:52.266Z,97843.42
2018-11-06T23:54:54.801Z,97834.77
2018-11-06T23:59:57.398Z,97835.12
